createdAt,value
2023-01-26T00:02:25.770Z,405.45
2023-01-26T00:04:55.697Z,651.03
2023-01-26T00:07:25.509Z,1016.10
2023-01-26T00:09:55.490Z,178.00
2023-01-26T00:12:25.368Z,153.95
2023-01-26T00:14:55.258Z,151.63
2023-01-26T00:17:31.176Z,157.48
2023-01-26T00:20:01.653Z,151.23
2023-01-26T00:22:31.654Z,244.70
2023-01-26T00:25:01.540Z,394.90
2023-01-26T00:27:31.538Z,762.95
2023-01-26T00:30:03.363Z,149.63
2023-01-26T00:32:33.392Z,142.98
2023-01-26T00:35:03.258Z,201.52
2023-01-26T00:37:33.292Z,193.70
2023-01-26T00:40:03.162Z,204.98
2023-01-26T00:42:33.042Z,180.80
2023-01-26T00:45:03.124Z,155.00
2023-01-26T00:47:32.990Z,136.35
2023-01-26T00:50:02.914Z,118.45
2023-01-26T00:52:32.852Z,123.70
2023-01-26T00:55:02.812Z,175.93
2023-01-26T00:57:32.729Z,193.77
2023-01-26T01:00:02.614Z,531.47
2023-01-26T01:02:33.532Z,268.13
2023-01-26T01:05:03.481Z,344.58
2023-01-26T01:07:33.324Z,407.75
2023-01-26T01:10:03.853Z,219.75
2023-01-26T01:12:35.952Z,398.85
2023-01-26T01:15:05.882Z,345.90
2023-01-26T01:17:37.350Z,394.27
2023-01-26T01:20:10.144Z,416.17
2023-01-26T01:22:40.863Z,424.60
2023-01-26T01:25:11.415Z,333.83
2023-01-26T01:27:41.425Z,348.83
2023-01-26T01:30:12.812Z,418.90
2023-01-26T01:35:12.522Z,286.83
2023-01-26T01:37:42.536Z,342.30
2023-01-26T01:40:16.256Z,228.32
2023-01-26T01:42:51.160Z,385.70
2023-01-26T01:45:31.427Z,353.60
2023-01-26T01:48:04.362Z,249.05
2023-01-26T01:50:40.992Z,192.15
2023-01-26T01:53:15.764Z,216.30
2023-01-26T01:55:45.869Z,204.88
2023-01-26T01:58:16.856Z,266.40
2023-01-26T02:00:47.083Z,260.40
2023-01-26T02:03:17.700Z,285.90
2023-01-26T02:06:01.330Z,191.95
2023-01-26T02:08:45.787Z,206.45
2023-01-26T02:11:53.096Z,179.10
2023-01-26T02:14:23.205Z,286.13
2023-01-26T02:16:53.071Z,195.90
2023-01-26T02:19:41.537Z,274.10
2023-01-26T02:22:29.973Z,185.75
2023-01-26T02:25:06.644Z,269.88
2023-01-26T02:27:36.964Z,265.73
2023-01-26T02:30:09.013Z,266.92
2023-01-26T02:32:39.514Z,280.25
2023-01-26T02:35:10.111Z,312.40
2023-01-26T02:37:41.315Z,322.88
2023-01-26T02:42:50.504Z,360.45
2023-01-26T02:45:20.540Z,269.17
2023-01-26T02:47:50.769Z,377.65
2023-01-26T02:52:52.186Z,370.40
2023-01-26T02:55:25.483Z,427.75
2023-01-26T02:58:04.112Z,436.63
2023-01-26T03:00:44.237Z,379.63
2023-01-26T03:03:20.585Z,480.27
2023-01-26T03:05:50.777Z,456.48
2023-01-26T03:08:21.238Z,231.15
2023-01-26T03:10:51.336Z,238.50
2023-01-26T03:13:21.183Z,408.02
2023-01-26T03:15:56.740Z,406.38
2023-01-26T03:18:55.998Z,328.40
2023-01-26T03:21:52.206Z,491.65
2023-01-26T03:24:41.238Z,537.22
2023-01-26T03:27:31.038Z,290.95
2023-01-26T03:30:05.889Z,343.45
2023-01-26T03:32:36.068Z,357.20
2023-01-26T03:35:09.436Z,375.13
2023-01-26T03:37:45.720Z,285.85
2023-01-26T03:40:43.314Z,244.65
2023-01-26T03:43:31.820Z,306.40
2023-01-26T03:46:27.486Z,344.38
2023-01-26T03:49:16.086Z,233.73
2023-01-26T03:52:04.988Z,264.63
2023-01-26T03:54:53.277Z,259.35
2023-01-26T03:57:23.325Z,411.20
2023-01-26T03:59:53.297Z,495.75
2023-01-26T04:02:44.269Z,169.15
2023-01-26T04:05:32.874Z,168.30
2023-01-26T04:08:24.703Z,218.57
2023-01-26T04:10:59.637Z,368.05
2023-01-26T04:13:48.184Z,254.10
2023-01-26T04:16:45.327Z,575.45
2023-01-26T04:19:34.887Z,71.22
2023-01-26T04:22:06.792Z,63.38
2023-01-26T04:24:39.206Z,71.50
2023-01-26T04:27:09.390Z,141.43
2023-01-26T04:29:41.934Z,259.20
2023-01-26T04:32:12.190Z,385.67
2023-01-26T04:34:42.148Z,664.47
2023-01-26T04:37:21.646Z,96.70
2023-01-26T04:39:51.826Z,75.55
2023-01-26T04:42:26.607Z,74.90
2023-01-26T04:44:57.967Z,91.15
2023-01-26T04:50:00.139Z,97.32
2023-01-26T04:52:30.175Z,86.55
2023-01-26T04:55:00.137Z,96.32
2023-01-26T04:57:31.062Z,122.47
2023-01-26T05:00:03.602Z,274.80
2023-01-26T05:02:33.602Z,772.30
2023-01-26T05:05:03.510Z,79.68
2023-01-26T05:07:34.124Z,83.32
2023-01-26T05:10:05.583Z,87.45
2023-01-26T05:12:45.336Z,73.10
2023-01-26T05:15:33.797Z,86.10
2023-01-26T05:18:26.652Z,90.32
2023-01-26T05:21:02.077Z,99.13
2023-01-26T05:23:41.021Z,111.13
2023-01-26T05:26:25.355Z,421.02
2023-01-26T05:28:59.497Z,113.75
2023-01-26T05:31:29.796Z,140.00
2023-01-26T05:33:59.919Z,329.05
2023-01-26T05:36:29.914Z,166.82
2023-01-26T05:39:00.364Z,253.02
2023-01-26T05:41:30.790Z,660.25
2023-01-26T05:44:22.920Z,75.45
2023-01-26T05:46:57.810Z,101.78
2023-01-26T05:49:27.862Z,99.70
2023-01-26T05:51:58.298Z,98.10
2023-01-26T05:54:28.453Z,83.90
2023-01-26T05:56:59.893Z,83.07
2023-01-26T06:02:01.572Z,104.13
2023-01-26T06:04:32.369Z,99.25
2023-01-26T06:07:03.222Z,121.90
2023-01-26T06:09:39.668Z,141.02
2023-01-26T06:12:19.894Z,253.70
2023-01-26T06:14:58.581Z,627.75
2023-01-26T06:17:42.013Z,106.57
2023-01-26T06:20:16.927Z,84.68
2023-01-26T06:22:56.236Z,80.57
2023-01-26T06:25:26.268Z,90.20
2023-01-26T06:28:00.790Z,103.68
2023-01-26T06:30:32.047Z,65.35
2023-01-26T06:33:05.370Z,72.97
2023-01-26T06:35:38.449Z,68.97
2023-01-26T06:38:13.375Z,74.47
2023-01-26T06:40:43.787Z,67.63
2023-01-26T06:43:13.672Z,59.10
2023-01-26T06:45:44.796Z,77.05
2023-01-26T06:48:14.931Z,78.18
2023-01-26T06:50:48.082Z,88.50
2023-01-26T06:53:42.512Z,92.43
2023-01-26T06:56:32.728Z,98.10
2023-01-26T06:59:23.096Z,97.95
2023-01-26T07:02:20.529Z,108.70
2023-01-26T07:04:52.240Z,118.07
2023-01-26T07:07:22.372Z,114.38
2023-01-26T07:09:52.190Z,124.70
2023-01-26T07:12:22.525Z,121.55
2023-01-26T07:14:54.203Z,155.00
2023-01-26T07:17:24.231Z,194.25
2023-01-26T07:19:54.073Z,335.95
2023-01-26T07:22:23.955Z,450.05
2023-01-26T07:24:53.779Z,582.85
2023-01-26T07:27:23.615Z,332.13
2023-01-26T07:29:53.537Z,371.58
2023-01-26T07:32:23.713Z,489.45
2023-01-26T07:34:53.816Z,557.25
2023-01-26T07:37:23.685Z,833.50
2023-01-26T07:39:53.534Z,844.53
2023-01-26T07:42:23.704Z,241.57
2023-01-26T07:45:12.041Z,198.75
2023-01-26T07:47:42.131Z,112.95
2023-01-26T07:50:13.514Z,143.13
2023-01-26T07:52:47.356Z,295.42
2023-01-26T07:55:18.414Z,253.68
2023-01-26T07:57:51.315Z,435.15
2023-01-26T08:00:22.063Z,704.13
2023-01-26T08:02:55.051Z,353.87
2023-01-26T08:05:25.128Z,795.90
2023-01-26T08:07:55.356Z,853.58
2023-01-26T08:10:25.209Z,941.58
2023-01-26T08:12:55.240Z,960.17
2023-01-26T08:15:25.251Z,995.38
2023-01-26T08:17:57.218Z,1008.40
2023-01-26T08:20:27.275Z,1005.95
2023-01-26T08:22:58.343Z,1002.20
2023-01-26T08:25:29.722Z,1016.80
2023-01-26T08:27:59.668Z,1008.28
2023-01-26T08:30:29.530Z,1004.40
2023-01-26T08:33:00.270Z,1023.00
2023-01-26T08:35:30.601Z,941.30
2023-01-26T08:38:00.741Z,994.47
2023-01-26T08:40:30.615Z,1009.15
2023-01-26T08:43:05.301Z,1024.50
2023-01-26T08:45:35.450Z,1004.42
2023-01-26T08:48:05.473Z,1003.97
2023-01-26T08:50:35.331Z,990.53
2023-01-26T08:53:05.216Z,1013.47
2023-01-26T08:55:35.568Z,1019.13
2023-01-26T08:58:05.951Z,1000.95
2023-01-26T09:00:36.355Z,1006.78
2023-01-26T09:03:08.171Z,1003.38
2023-01-26T09:05:40.477Z,1017.97
2023-01-26T09:08:12.545Z,1017.78
2023-01-26T09:10:42.810Z,1009.13
2023-01-26T09:13:13.215Z,984.60
2023-01-26T09:15:43.487Z,961.75
2023-01-26T09:18:14.299Z,945.67
2023-01-26T09:20:44.399Z,943.33
2023-01-26T09:23:14.898Z,937.78
2023-01-26T09:25:44.951Z,955.13
2023-01-26T09:28:14.898Z,946.90
2023-01-26T09:30:44.817Z,950.95
2023-01-26T09:33:14.740Z,951.83
2023-01-26T09:35:44.643Z,961.83
2023-01-26T09:38:14.621Z,962.85
2023-01-26T09:40:53.201Z,947.28
2023-01-26T09:43:53.122Z,954.58
2023-01-26T09:46:32.872Z,922.28
2023-01-26T09:49:09.981Z,948.42
2023-01-26T09:52:02.855Z,956.35
2023-01-26T09:54:39.607Z,952.80
2023-01-26T09:57:19.790Z,937.00
2023-01-26T10:00:28.502Z,955.88
2023-01-26T10:03:08.098Z,943.28
2023-01-26T10:05:47.237Z,936.08
2023-01-26T10:08:21.042Z,941.67
2023-01-26T10:10:59.534Z,947.10
2023-01-26T10:13:31.822Z,938.67
2023-01-26T10:16:29.620Z,948.88
2023-01-26T10:19:16.746Z,954.45
2023-01-26T10:21:51.608Z,963.60
2023-01-26T10:24:26.247Z,962.88
2023-01-26T10:27:00.138Z,960.10
2023-01-26T10:29:30.436Z,945.28
2023-01-26T10:32:00.357Z,955.72
2023-01-26T10:34:30.837Z,964.80
2023-01-26T10:37:36.795Z,956.07
2023-01-26T10:40:09.646Z,952.30
2023-01-26T10:42:41.221Z,959.42
2023-01-26T10:45:28.353Z,949.67
2023-01-26T10:48:20.135Z,968.45
2023-01-26T10:50:50.973Z,949.05
2023-01-26T10:53:27.297Z,936.33
2023-01-26T10:56:15.642Z,941.80
2023-01-26T10:59:05.368Z,948.53
2023-01-26T11:01:54.942Z,945.38
2023-01-26T11:04:25.771Z,946.47
2023-01-26T11:06:57.019Z,938.03
2023-01-26T11:09:31.709Z,935.75
2023-01-26T11:12:05.035Z,956.58
2023-01-26T11:14:36.910Z,964.13
2023-01-26T11:17:24.945Z,935.40
2023-01-26T11:20:21.173Z,928.28
2023-01-26T11:23:18.360Z,930.45
2023-01-26T11:26:06.367Z,929.15
2023-01-26T11:28:53.100Z,921.28
2023-01-26T11:31:34.961Z,926.38
2023-01-26T11:34:21.311Z,900.65
2023-01-26T11:37:23.196Z,917.05
2023-01-26T11:40:31.088Z,935.78
2023-01-26T11:43:45.106Z,924.83
2023-01-26T11:46:50.089Z,935.03
2023-01-26T11:49:22.806Z,945.88
2023-01-26T11:52:10.353Z,952.55
2023-01-26T11:55:10.224Z,943.25
2023-01-26T11:58:03.871Z,949.15
2023-01-26T12:01:20.086Z,945.00
2023-01-26T12:03:54.049Z,940.20
2023-01-26T12:06:29.654Z,949.53
2023-01-26T12:09:13.806Z,942.28
2023-01-26T12:11:50.163Z,928.53
2023-01-26T12:14:26.306Z,951.90
2023-01-26T12:17:18.168Z,939.08
2023-01-26T12:20:22.334Z,947.75
2023-01-26T12:23:05.411Z,953.75
2023-01-26T12:25:41.916Z,935.25
2023-01-26T12:28:36.121Z,943.40
2023-01-26T12:31:29.206Z,944.22
2023-01-26T12:33:59.632Z,944.22
2023-01-26T12:37:01.347Z,945.70
2023-01-26T12:42:27.717Z,934.35
2023-01-26T12:45:04.484Z,935.33
2023-01-26T12:47:41.890Z,945.83
2023-01-26T12:50:39.045Z,931.67
2023-01-26T12:53:25.213Z,923.65
2023-01-26T12:56:03.750Z,934.38
2023-01-26T12:58:48.139Z,941.22
2023-01-26T13:01:28.290Z,942.60
2023-01-26T13:04:07.290Z,936.50
2023-01-26T13:06:37.554Z,958.78
2023-01-26T13:09:24.282Z,932.45
2023-01-26T13:12:00.517Z,930.60
2023-01-26T13:14:38.753Z,958.38
2023-01-26T13:17:24.405Z,932.40
2023-01-26T15:40:44.144Z,44.08
2023-01-26T15:43:19.316Z,43.50
2023-01-26T15:45:57.927Z,50.60
2023-01-26T15:48:29.153Z,46.13
2023-01-26T15:50:59.370Z,45.58
2023-01-26T15:53:29.669Z,48.88
2023-01-26T15:56:00.795Z,48.47
2023-01-26T15:58:37.131Z,46.05
2023-01-26T16:01:08.520Z,55.58
2023-01-26T16:03:38.626Z,45.47
2023-01-26T16:06:08.843Z,53.45
2023-01-26T16:08:38.989Z,54.60
2023-01-26T16:11:14.348Z,46.13
2023-01-26T16:14:02.304Z,68.80
2023-01-26T16:16:41.838Z,56.80
2023-01-26T16:19:40.203Z,51.28
2023-01-26T16:22:20.790Z,49.60
2023-01-26T16:24:50.898Z,44.28
2023-01-26T16:27:23.086Z,56.10
2023-01-26T16:29:53.250Z,44.10
2023-01-26T16:32:31.373Z,47.72
2023-01-26T16:35:01.710Z,48.70
2023-01-26T16:37:31.838Z,47.38
2023-01-26T16:40:01.854Z,46.22
2023-01-26T16:42:31.810Z,55.33
2023-01-26T16:45:02.052Z,45.35
2023-01-26T16:47:34.829Z,45.53
2023-01-26T16:50:05.049Z,51.20
2023-01-26T16:52:36.911Z,40.95
2023-01-26T16:55:07.461Z,44.22
2023-01-26T16:57:37.453Z,50.65
2023-01-26T17:00:08.224Z,47.72
2023-01-26T17:02:39.267Z,54.07
2023-01-26T17:05:10.012Z,50.85
2023-01-26T17:07:40.336Z,51.80
2023-01-26T17:10:11.200Z,51.20
2023-01-26T17:12:42.451Z,41.22
2023-01-26T17:15:16.035Z,45.92
2023-01-26T17:17:47.788Z,45.97
2023-01-26T17:20:19.770Z,44.13
2023-01-26T17:22:50.975Z,45.83
2023-01-26T17:25:21.198Z,42.47
2023-01-26T17:27:54.223Z,48.83
2023-01-26T17:30:24.727Z,42.17
2023-01-26T17:32:54.898Z,41.70
2023-01-26T17:35:24.970Z,46.15
2023-01-26T17:37:55.442Z,45.33
2023-01-26T17:40:25.806Z,43.80
2023-01-26T17:42:55.884Z,41.92
2023-01-26T17:45:25.979Z,43.33
2023-01-26T17:47:56.580Z,45.22
2023-01-26T17:50:26.793Z,48.37
2023-01-26T17:52:56.930Z,46.35
2023-01-26T17:55:27.057Z,47.63
2023-01-26T17:57:57.245Z,41.28
2023-01-26T18:00:27.187Z,59.33
2023-01-26T18:02:58.683Z,53.35
2023-01-26T18:05:28.849Z,51.30
2023-01-26T18:07:58.904Z,47.88
2023-01-26T18:10:32.591Z,51.92
2023-01-26T18:13:02.694Z,48.90
2023-01-26T18:15:32.658Z,50.30
2023-01-26T18:18:02.602Z,52.17
2023-01-26T18:20:32.568Z,49.15
2023-01-26T18:23:02.796Z,50.20
2023-01-26T18:25:32.932Z,51.13
2023-01-26T18:28:02.928Z,47.33
2023-01-26T18:30:32.925Z,54.28
2023-01-26T18:33:02.926Z,51.65
2023-01-26T22:33:39.023Z,458.67
2023-01-26T22:36:12.903Z,500.27
2023-01-26T22:38:44.773Z,485.05
2023-01-26T22:41:23.864Z,508.60
2023-01-26T22:43:59.371Z,682.88
2023-01-26T22:46:31.189Z,470.15
2023-01-26T22:49:02.554Z,477.08
2023-01-26T22:51:34.023Z,470.70
2023-01-26T22:54:04.855Z,470.17
2023-01-26T22:56:35.754Z,312.93
2023-01-26T22:59:06.049Z,87.15
2023-01-26T23:01:36.233Z,91.50
